首页
METAR-TAF:

METAR-TAF

机场 :

魁北克让·勒萨热国际机场

魁北克, 魁北克, 加拿大

纬度: 46-48N, 经度: 071-23W, 海拔: 70米

当前天气观测

该预报发布于34分钟前的14:00 UTC
风速11节,风向西南
温度 -18°C
湿度 65%
气压 1022 hPa
能見度: 48.3公里
少量云层高于8600英尺
少量云层高于22000英尺

METAR: CYQB 201400Z 23011KT 30SM FEW086 FEW220 M18/M23 A3017 RMK AC1CI1 SLP227

时间: 09:34 (14:34 UTC)

预报

该预报发布于2小时和54分钟前的11:40 UTC
预报有效从20日的 12点(UTC)到 21日的 12点(UTC)
风速3节,风向多变
能見度: 10公里
少量云层高于2500英尺
少量云层高于24000英尺
成为
从 20日的 12点(UTC)到 20日的 14点(UTC)
风速10节,风向西
从 20日的 2000点(UTC)
风速12节,风向西
能見度: 10公里
少量云层高于3000英尺
散云层高于11000英尺
成为
从 20日的 21点(UTC)到 20日的 23点(UTC)
风速5节,风向西
成为
从 21日的 04点(UTC)到 21日的 06点(UTC)
风速3节,风向多变

TAF: CYQB 201140Z 2012/2112 VRB03KT P6SM FEW025 FEW240 BECMG 2012/2014 27010KT FM202000 27012KT P6SM FEW030 SCT110 BECMG 2021/2023 27005KT BECMG 2104/2106 VRB03KT RMK NXT FCST BY 201800Z

超过4000个机场的气象观测和天气预报(METAR&TAF报告)。

可查询的气象台以黄色和红色小点在地图上表示。

将鼠标移到小点上方,可查看气象台名称。

然后点击查看天气观测和预报。

如需切换地图:点击带黑十字的绿色按钮放大地图;点击带横线的绿色按钮缩小地图;或者点击绿色箭头查看邻近地区的地图。


METAR-TAF: